Terminal Aerodrome Forecast
Issued by NWS Sioux Falls, SD

Home | Current Version | Previous Version | Text Only | Print | Product List | Glossary On
Versions: 1 2 3 4 5 6 7 8 9 10 11 12 13 14 15 16 17 18 19 20 21 22 23 24 25 26 27 28 29 30 31 32 33 34
000
FTUS43 KFSD 282332
TAFSUX
TAF
KSUX 282332Z 2900/2924 VRB05KT P6SM SCT200
     FM290130 33013G22KT P6SM BKN200
     FM290300 33026G37KT P6SM SCT020 OVC150
     FM290700 33028G39KT P6SM BKN020
     FM291600 33020G29KT P6SM SCT025
     FM292100 34016G23KT P6SM FEW030=

USA.gov is the U.S. government's official web portal to all federal, state and local government web resources and services.